createdAt,value
2022-07-25T00:00:27.638Z,99625.53
2022-07-25T00:00:59.107Z,99626.34
2022-07-25T00:01:31.943Z,99619.25
2022-07-25T00:02:03.622Z,99626.34
2022-07-25T00:02:35.084Z,99627.13
2022-07-25T00:03:06.598Z,99629.06
2022-07-25T00:03:42.333Z,99626.34
2022-07-25T00:04:14.869Z,99622.78
2022-07-25T00:04:46.488Z,99620.84
2022-07-25T00:05:18.118Z,99625.53
2022-07-25T00:05:49.624Z,99621.66
2022-07-25T00:06:21.061Z,99615.38
2022-07-25T00:06:52.542Z,99622.78
2022-07-25T00:07:24.002Z,99622.78
2022-07-25T00:07:55.433Z,99619.25
2022-07-25T00:08:26.923Z,99621.66
2022-07-25T00:08:58.342Z,99623.59
2022-07-25T00:09:29.879Z,99623.59
2022-07-25T00:10:01.328Z,99623.59
2022-07-25T00:10:32.785Z,99624.41
2022-07-25T00:11:04.403Z,99621.97
2022-07-25T00:11:35.849Z,99620.84
2022-07-25T00:12:07.296Z,99620.84
2022-07-25T00:12:39.203Z,99617.31
2022-07-25T00:13:10.667Z,99612.97
2022-07-25T00:13:42.310Z,99628.25
2022-07-25T00:14:13.790Z,99620.03
2022-07-25T00:14:45.293Z,99624.72
2022-07-25T00:15:16.833Z,99620.84
2022-07-25T00:15:48.439Z,99624.72
2022-07-25T00:16:20.236Z,99617.31
2022-07-25T00:16:51.739Z,99626.34
2022-07-25T00:18:01.415Z,99626.34
2022-07-25T00:18:32.942Z,99620.84
2022-07-25T00:19:04.355Z,99614.56
2022-07-25T00:19:35.726Z,99620.84
2022-07-25T00:20:07.141Z,99619.25
2022-07-25T00:20:38.485Z,99615.38
2022-07-25T00:21:09.801Z,99617.31
2022-07-25T00:21:41.191Z,99620.84
2022-07-25T00:22:12.577Z,99613.75
2022-07-25T00:22:44.071Z,99618.13
2022-07-25T00:23:15.430Z,99625.53
2022-07-25T00:23:46.791Z,99611.84
2022-07-25T00:24:18.130Z,99621.97
2022-07-25T00:24:49.514Z,99613.75
2022-07-25T00:25:20.850Z,99612.66
2022-07-25T00:25:52.245Z,99615.38
2022-07-25T00:26:23.579Z,99614.56
2022-07-25T00:26:54.979Z,99615.38
2022-07-25T00:27:26.476Z,99609.09
2022-07-25T00:27:57.819Z,99613.75
2022-07-25T00:28:29.157Z,99612.16
2022-07-25T00:29:00.498Z,99611.03
2022-07-25T00:29:31.875Z,99614.56
2022-07-25T00:30:03.190Z,99612.66
2022-07-25T00:30:34.552Z,99613.75
2022-07-25T00:31:05.924Z,99614.56
2022-07-25T00:31:37.529Z,99617.31
2022-07-25T00:32:09.015Z,99614.56
2022-07-25T00:32:40.348Z,99613.75
2022-07-25T00:33:11.739Z,99609.41
2022-07-25T00:33:43.174Z,99611.03
2022-07-25T00:34:14.502Z,99611.03
2022-07-25T00:34:45.777Z,99606.38
2022-07-25T00:35:17.195Z,99611.03
2022-07-25T00:35:48.563Z,99608.28
2022-07-25T00:36:19.891Z,99611.03
2022-07-25T00:36:51.317Z,99603.63
2022-07-25T00:37:22.639Z,99607.16
2022-07-25T00:37:54.031Z,99603.63
2022-07-25T00:38:25.413Z,99613.75
2022-07-25T00:38:56.797Z,99602.81
2022-07-25T00:39:28.183Z,99602.81
2022-07-25T00:39:59.567Z,99600.06
2022-07-25T00:40:30.900Z,99599.28
2022-07-25T00:41:02.329Z,99600.06
2022-07-25T00:41:33.704Z,99600.06
2022-07-25T00:42:05.058Z,99598.16
2022-07-25T00:42:36.430Z,99604.44
2022-07-25T00:43:07.838Z,99598.16
2022-07-25T00:43:39.167Z,99590.25
2022-07-25T00:44:10.505Z,99597.34
2022-07-25T00:44:41.898Z,99595.41
2022-07-25T00:45:13.282Z,99589.13
2022-07-25T00:45:44.815Z,99589.13
2022-07-25T00:46:18.858Z,99591.88
2022-07-25T00:46:50.577Z,99584.78
2022-07-25T00:47:21.966Z,99589.94
2022-07-25T00:47:53.310Z,99577.38
2022-07-25T00:48:24.666Z,99587.19
2022-07-25T00:48:56.119Z,99591.88
2022-07-25T00:49:28.042Z,99578.19
2022-07-25T00:49:59.439Z,99586.41
2022-07-25T00:50:30.780Z,99579.00
2022-07-25T00:51:02.156Z,99574.63
2022-07-25T00:51:33.465Z,99571.91
2022-07-25T00:52:04.863Z,99578.19
2022-07-25T00:52:36.331Z,99580.91
2022-07-25T00:53:07.753Z,99580.13
2022-07-25T00:53:39.087Z,99579.31
2022-07-25T00:54:10.428Z,99576.25
2022-07-25T00:54:41.718Z,99574.63
2022-07-25T00:55:13.063Z,99579.31
2022-07-25T00:55:44.474Z,99578.19
2022-07-25T00:56:15.799Z,99569.97
2022-07-25T00:56:47.137Z,99577.38
2022-07-25T00:57:18.603Z,99576.56
2022-07-25T00:57:49.909Z,99580.13
2022-07-25T00:58:21.356Z,99572.72
2022-07-25T00:58:52.879Z,99574.63
2022-07-25T00:59:24.248Z,99578.19
2022-07-25T00:59:55.603Z,99567.22
2022-07-25T01:00:26.899Z,99571.91
2022-07-25T01:00:58.270Z,99569.97
2022-07-25T01:01:29.752Z,99575.44
2022-07-25T01:02:01.226Z,99569.97
2022-07-25T01:02:35.592Z,99569.97
2022-07-25T01:03:07.077Z,99564.50
2022-07-25T01:03:38.551Z,99561.75
2022-07-25T01:04:09.951Z,99562.88
2022-07-25T01:04:41.266Z,99567.22
2022-07-25T01:05:12.665Z,99569.16
2022-07-25T01:05:43.979Z,99568.03
2022-07-25T01:06:15.407Z,99559.81
2022-07-25T01:06:46.847Z,99570.78
2022-07-25T01:07:18.245Z,99569.97
2022-07-25T01:07:49.654Z,99567.22
2022-07-25T01:08:21.017Z,99567.22
2022-07-25T01:08:52.343Z,99564.50
2022-07-25T01:09:23.665Z,99560.94
2022-07-25T01:09:55.016Z,99565.31
2022-07-25T01:10:26.385Z,99566.44
2022-07-25T01:10:57.737Z,99567.22
2022-07-25T01:11:29.164Z,99560.94
2022-07-25T01:12:00.632Z,99563.69
2022-07-25T01:12:32.015Z,99566.44
2022-07-25T01:13:03.399Z,99556.59
2022-07-25T01:13:34.758Z,99560.16
2022-07-25T01:14:06.549Z,99559.03
2022-07-25T01:14:38.296Z,99561.25
2022-07-25T01:15:09.622Z,99559.03
2022-07-25T01:15:41.064Z,99549.19
2022-07-25T01:16:12.545Z,99551.94
2022-07-25T01:16:43.909Z,99560.94
2022-07-25T01:17:15.207Z,99552.75
2022-07-25T01:17:46.549Z,99553.53
2022-07-25T01:18:17.903Z,99553.53
2022-07-25T01:18:49.282Z,99554.34
2022-07-25T01:19:20.790Z,99556.28
2022-07-25T01:19:52.152Z,99556.28
2022-07-25T01:20:23.486Z,99551.63
2022-07-25T01:20:54.841Z,99547.25
2022-07-25T01:21:26.214Z,99560.94
2022-07-25T01:21:57.596Z,99556.28
2022-07-25T01:22:28.988Z,99553.53
2022-07-25T01:23:00.340Z,99553.53
2022-07-25T01:23:31.695Z,99551.94
2022-07-25T01:24:03.424Z,99555.47
2022-07-25T01:24:35.053Z,99553.53
2022-07-25T01:25:06.445Z,99554.66
2022-07-25T01:25:37.797Z,99546.47
2022-07-25T01:26:09.142Z,99550.00
2022-07-25T01:26:40.481Z,99555.47
2022-07-25T01:27:17.499Z,99556.28
2022-07-25T01:27:54.868Z,99554.66
2022-07-25T01:28:26.742Z,99552.75
2022-07-25T01:28:58.007Z,99551.94
2022-07-25T01:29:29.424Z,99554.66
2022-07-25T01:30:00.763Z,99552.75
2022-07-25T01:30:32.093Z,99550.00
2022-07-25T01:31:03.510Z,99544.53
2022-07-25T01:31:35.075Z,99546.47
2022-07-25T01:32:06.440Z,99545.34
2022-07-25T01:32:37.853Z,99551.63
2022-07-25T01:33:09.198Z,99551.94
2022-07-25T01:33:40.528Z,99540.97
2022-07-25T01:34:11.892Z,99550.81
2022-07-25T01:34:43.246Z,99547.25
2022-07-25T01:35:14.620Z,99544.84
2022-07-25T01:35:45.947Z,99542.59
2022-07-25T01:36:17.299Z,99551.94
2022-07-25T01:36:48.737Z,99546.47
2022-07-25T01:37:20.144Z,99542.09
2022-07-25T01:37:51.482Z,99544.84
2022-07-25T01:38:22.818Z,99544.53
2022-07-25T01:38:54.374Z,99543.41
2022-07-25T01:39:25.843Z,99553.53
2022-07-25T01:39:57.199Z,99547.25
2022-07-25T01:40:28.510Z,99547.25
2022-07-25T01:40:59.804Z,99546.47
2022-07-25T01:41:31.189Z,99552.75
2022-07-25T01:42:02.571Z,99549.19
2022-07-25T01:42:33.879Z,99545.66
2022-07-25T01:43:05.231Z,99540.97
2022-07-25T01:43:36.543Z,99544.53
2022-07-25T01:44:08.221Z,99549.19
2022-07-25T01:44:39.715Z,99543.72
2022-07-25T01:45:11.081Z,99548.06
2022-07-25T01:45:42.417Z,99545.34
2022-07-25T01:46:13.847Z,99534.69
2022-07-25T01:46:45.407Z,99541.78
2022-07-25T01:47:16.749Z,99539.88
2022-07-25T01:47:48.012Z,99541.78
2022-07-25T01:48:19.919Z,99540.97
2022-07-25T01:48:51.475Z,99537.44
2022-07-25T01:49:22.899Z,99540.19
2022-07-25T01:49:54.337Z,99539.06
2022-07-25T01:50:25.654Z,99540.97
2022-07-25T01:50:57.044Z,99542.91
2022-07-25T01:51:28.540Z,99535.50
2022-07-25T01:51:59.869Z,99545.34
2022-07-25T01:52:31.228Z,99539.88
2022-07-25T01:53:02.751Z,99537.13
2022-07-25T01:53:34.110Z,99538.25
2022-07-25T01:54:09.041Z,99541.78
2022-07-25T01:54:41.949Z,99538.25
2022-07-25T01:55:15.004Z,99533.91
2022-07-25T01:55:46.426Z,99532.78
2022-07-25T01:56:18.015Z,99530.03
2022-07-25T01:56:53.339Z,99538.25
2022-07-25T01:57:26.589Z,99535.50
2022-07-25T01:58:02.212Z,99540.97
2022-07-25T01:58:33.799Z,99533.91
2022-07-25T01:59:05.163Z,99529.22
2022-07-25T01:59:36.500Z,99529.22
2022-07-25T02:00:07.823Z,99530.84
2022-07-25T02:00:40.141Z,99530.84
2022-07-25T02:01:11.552Z,99532.78
2022-07-25T02:01:42.963Z,99532.78
2022-07-25T02:02:14.386Z,99530.03
2022-07-25T02:02:45.716Z,99526.19
2022-07-25T02:03:17.043Z,99530.03
2022-07-25T02:03:48.396Z,99525.69
2022-07-25T02:04:19.781Z,99530.03
2022-07-25T02:04:51.241Z,99526.50
2022-07-25T02:05:22.647Z,99526.50
2022-07-25T02:05:54.072Z,99524.56
2022-07-25T02:06:25.377Z,99528.91
2022-07-25T02:06:56.705Z,99524.56
2022-07-25T02:07:28.124Z,99524.56
2022-07-25T02:07:59.462Z,99520.22
2022-07-25T02:08:30.866Z,99533.59
2022-07-25T02:09:02.223Z,99527.31
2022-07-25T02:09:33.591Z,99527.31
2022-07-25T02:10:04.953Z,99528.09
2022-07-25T02:10:36.373Z,99525.38
2022-07-25T02:11:08.681Z,99527.31
2022-07-25T02:11:40.088Z,99519.91
2022-07-25T02:12:11.493Z,99519.09
2022-07-25T02:12:43.050Z,99519.09
2022-07-25T02:13:14.443Z,99521.81
2022-07-25T02:13:45.866Z,99521.03
2022-07-25T02:14:17.223Z,99524.56
2022-07-25T02:14:48.746Z,99519.09
2022-07-25T02:15:20.098Z,99519.09
2022-07-25T02:15:51.427Z,99519.09
2022-07-25T02:16:28.772Z,99519.09
2022-07-25T02:17:00.629Z,99520.69
2022-07-25T02:17:31.975Z,99514.75
2022-07-25T02:18:03.350Z,99512.81
2022-07-25T02:18:34.757Z,99516.34
2022-07-25T02:19:06.097Z,99521.81
2022-07-25T02:19:37.389Z,99520.69
2022-07-25T02:20:08.781Z,99522.63
2022-07-25T02:20:40.153Z,99517.47
2022-07-25T02:21:14.043Z,99516.34
2022-07-25T02:21:46.208Z,99510.88
2022-07-25T02:22:17.643Z,99514.41
2022-07-25T02:22:49.016Z,99508.94
2022-07-25T02:23:20.396Z,99519.09
2022-07-25T02:23:51.712Z,99521.03
2022-07-25T02:24:23.030Z,99519.91
2022-07-25T02:24:54.372Z,99517.97
2022-07-25T02:25:25.744Z,99514.41
2022-07-25T02:25:57.049Z,99514.75
2022-07-25T02:26:28.451Z,99511.69
2022-07-25T02:26:59.830Z,99514.41
2022-07-25T02:27:31.263Z,99514.41
2022-07-25T02:28:02.706Z,99520.69
2022-07-25T02:28:34.028Z,99510.88
2022-07-25T02:29:05.408Z,99513.63
2022-07-25T02:29:36.760Z,99508.13
2022-07-25T02:30:08.073Z,99508.13
2022-07-25T02:30:39.511Z,99507.00
2022-07-25T02:31:11.086Z,99511.19
2022-07-25T02:31:42.463Z,99517.97
2022-07-25T02:32:13.878Z,99515.53
2022-07-25T02:32:45.298Z,99508.13
2022-07-25T02:33:16.982Z,99507.34
2022-07-25T02:33:48.490Z,99511.69
2022-07-25T02:34:19.833Z,99505.72
2022-07-25T02:34:51.209Z,99508.13
2022-07-25T02:35:22.572Z,99510.88
2022-07-25T02:35:53.978Z,99508.13
2022-07-25T02:36:25.412Z,99512.81
2022-07-25T02:36:56.777Z,99510.88
2022-07-25T02:37:28.255Z,99502.66
2022-07-25T02:37:59.615Z,99509.25
2022-07-25T02:38:30.954Z,99506.53
2022-07-25T02:39:02.274Z,99508.13
2022-07-25T02:39:33.617Z,99502.66
2022-07-25T02:40:04.935Z,99505.41
2022-07-25T02:40:36.394Z,99504.59
2022-07-25T02:41:07.757Z,99500.72
2022-07-25T02:41:39.199Z,99507.34
2022-07-25T02:42:10.579Z,99502.66
2022-07-25T02:42:41.890Z,99502.66
2022-07-25T02:43:13.237Z,99502.66
2022-07-25T02:43:47.044Z,99502.66
2022-07-25T02:44:18.630Z,99498.00
2022-07-25T02:44:49.947Z,99493.66
2022-07-25T02:45:21.367Z,99491.72
2022-07-25T02:45:52.760Z,99498.00
2022-07-25T02:46:24.228Z,99494.44
2022-07-25T02:46:55.636Z,99491.72
2022-07-25T02:47:26.971Z,99494.44
2022-07-25T02:47:58.273Z,99492.53
2022-07-25T02:48:29.708Z,99491.72
2022-07-25T02:49:01.188Z,99492.84
2022-07-25T02:49:32.532Z,99488.97
2022-07-25T02:50:03.954Z,99488.16
2022-07-25T02:50:35.304Z,99488.97
2022-07-25T02:51:06.678Z,99487.06
2022-07-25T02:51:38.022Z,99488.16
2022-07-25T02:52:09.405Z,99486.25
2022-07-25T02:52:40.851Z,99488.97
2022-07-25T02:53:12.154Z,99491.72
2022-07-25T02:53:59.284Z,99487.06
2022-07-25T02:54:30.777Z,99478.34
2022-07-25T02:55:06.101Z,99477.22
2022-07-25T02:55:40.955Z,99487.06
2022-07-25T02:56:12.407Z,99471.75
2022-07-25T02:56:45.658Z,99473.69
2022-07-25T02:57:17.058Z,99486.25
2022-07-25T02:57:48.512Z,99469.81
2022-07-25T02:58:19.836Z,99478.03
2022-07-25T02:58:51.183Z,99475.28
2022-07-25T02:59:22.575Z,99468.22
2022-07-25T02:59:53.928Z,99470.94
2022-07-25T03:00:25.276Z,99474.50
2022-07-25T03:00:56.829Z,99472.56
2022-07-25T03:01:28.322Z,99472.56
2022-07-25T03:01:59.673Z,99476.41
2022-07-25T03:02:31.039Z,99471.44
2022-07-25T03:03:02.388Z,99470.63
2022-07-25T03:03:35.666Z,99474.50
2022-07-25T03:04:07.475Z,99472.56
2022-07-25T03:04:39.165Z,99467.88
2022-07-25T03:05:10.540Z,99468.22
2022-07-25T03:05:41.895Z,99465.47
2022-07-25T03:06:13.242Z,99473.69
2022-07-25T03:06:44.603Z,99467.41
2022-07-25T03:07:16.109Z,99468.22
2022-07-25T03:07:47.630Z,99469.81
2022-07-25T03:08:19.154Z,99468.22
2022-07-25T03:08:50.538Z,99468.69
2022-07-25T03:09:21.925Z,99462.72
2022-07-25T03:09:53.294Z,99468.22
2022-07-25T03:10:24.651Z,99467.09
2022-07-25T03:10:55.985Z,99465.16
2022-07-25T03:11:27.308Z,99467.09
2022-07-25T03:11:58.669Z,99464.34
2022-07-25T03:12:29.992Z,99464.34
2022-07-25T03:13:01.378Z,99463.53
2022-07-25T03:13:32.790Z,99464.34
2022-07-25T03:14:04.734Z,99470.63
2022-07-25T03:14:36.419Z,99465.16
2022-07-25T03:15:07.781Z,99461.63
2022-07-25T03:15:39.187Z,99463.53
2022-07-25T03:16:10.715Z,99464.34
2022-07-25T03:16:42.137Z,99467.09
2022-07-25T03:17:13.595Z,99467.09
2022-07-25T03:17:45.056Z,99464.34
2022-07-25T03:18:16.461Z,99463.53
2022-07-25T03:18:47.846Z,99470.63
2022-07-25T03:19:19.199Z,99462.41
2022-07-25T03:19:50.768Z,99462.72
2022-07-25T03:20:22.081Z,99461.63
2022-07-25T03:20:53.478Z,99467.88
2022-07-25T03:21:24.922Z,99461.13
2022-07-25T03:21:56.270Z,99461.63
2022-07-25T03:22:27.635Z,99459.69
2022-07-25T03:22:59.039Z,99462.41
2022-07-25T03:23:30.428Z,99462.72
2022-07-25T03:24:01.795Z,99459.69
2022-07-25T03:24:33.116Z,99461.63
2022-07-25T03:25:04.436Z,99462.72
2022-07-25T03:25:35.779Z,99467.88
2022-07-25T03:26:07.156Z,99461.63
2022-07-25T03:26:38.465Z,99457.25
2022-07-25T03:27:09.784Z,99457.25
2022-07-25T03:27:41.239Z,99462.41
2022-07-25T03:28:12.757Z,99455.34
2022-07-25T03:28:44.165Z,99458.88
2022-07-25T03:29:15.499Z,99450.97
2022-07-25T03:29:46.866Z,99454.53
2022-07-25T03:30:18.268Z,99461.63
2022-07-25T03:30:49.662Z,99461.63
2022-07-25T03:31:21.134Z,99458.88
2022-07-25T03:31:52.580Z,99455.66
2022-07-25T03:32:24.031Z,99460.00
2022-07-25T03:32:55.430Z,99454.53
2022-07-25T03:33:26.842Z,99453.41
2022-07-25T03:33:58.200Z,99455.34
2022-07-25T03:34:29.556Z,99456.13
2022-07-25T03:35:00.892Z,99451.78
2022-07-25T03:35:32.314Z,99454.22
2022-07-25T03:36:03.726Z,99454.53
2022-07-25T03:36:35.090Z,99452.59
2022-07-25T03:37:06.401Z,99458.06
2022-07-25T03:37:37.725Z,99453.72
2022-07-25T03:38:09.065Z,99453.41
2022-07-25T03:38:40.393Z,99451.78
2022-07-25T03:39:11.849Z,99452.59
2022-07-25T03:39:43.194Z,99450.97
2022-07-25T03:40:14.530Z,99450.97
2022-07-25T03:40:47.379Z,99449.84
2022-07-25T03:41:19.063Z,99451.78
2022-07-25T03:41:50.492Z,99447.44
2022-07-25T03:42:26.535Z,99453.41
2022-07-25T03:42:58.247Z,99451.78
2022-07-25T03:43:29.688Z,99443.56
2022-07-25T03:44:01.078Z,99446.31
2022-07-25T03:44:32.501Z,99444.38
2022-07-25T03:45:03.902Z,99452.59
2022-07-25T03:45:35.351Z,99449.84
2022-07-25T03:46:06.868Z,99446.31
2022-07-25T03:46:38.355Z,99446.31
2022-07-25T03:47:09.740Z,99441.66
2022-07-25T03:47:52.284Z,99441.66
2022-07-25T03:48:23.702Z,99438.91
2022-07-25T03:48:55.231Z,99446.31
2022-07-25T03:49:26.682Z,99442.44
2022-07-25T03:49:58.106Z,99436.97
2022-07-25T03:50:29.473Z,99438.91
2022-07-25T03:51:06.416Z,99443.56
2022-07-25T03:51:38.337Z,99442.78
2022-07-25T03:52:09.725Z,99440.03
2022-07-25T03:52:41.205Z,99438.91
2022-07-25T03:53:12.551Z,99446.31
2022-07-25T03:53:43.937Z,99435.38
2022-07-25T03:54:15.308Z,99433.44
2022-07-25T03:54:46.747Z,99431.00
2022-07-25T03:55:18.117Z,99433.75
2022-07-25T03:55:49.765Z,99427.97
2022-07-25T03:56:21.131Z,99439.22
2022-07-25T03:56:52.465Z,99435.38
2022-07-25T03:57:23.773Z,99432.63
2022-07-25T03:57:55.054Z,99435.38
2022-07-25T03:58:26.347Z,99432.63
2022-07-25T03:58:57.665Z,99438.91
2022-07-25T03:59:29.029Z,99429.09
2022-07-25T04:00:00.369Z,99435.38
2022-07-25T04:00:31.767Z,99428.28
2022-07-25T04:01:03.094Z,99434.25
2022-07-25T04:01:35.719Z,99432.63
2022-07-25T04:02:07.254Z,99424.41
2022-07-25T04:02:38.765Z,99431.50
2022-07-25T04:03:10.114Z,99422.47
2022-07-25T04:03:41.433Z,99425.22
2022-07-25T04:04:15.647Z,99427.16
2022-07-25T04:04:47.017Z,99427.97
2022-07-25T04:05:18.338Z,99429.88
2022-07-25T04:05:49.744Z,99426.03
2022-07-25T04:06:21.108Z,99419.75
2022-07-25T04:06:52.438Z,99427.16
2022-07-25T04:07:23.792Z,99422.81
2022-07-25T04:07:55.130Z,99424.41
2022-07-25T04:08:26.516Z,99426.03
2022-07-25T04:08:57.899Z,99423.59
2022-07-25T04:09:31.053Z,99418.94
2022-07-25T04:10:04.816Z,99420.56
2022-07-25T04:10:36.212Z,99423.59
2022-07-25T04:11:07.633Z,99417.81
2022-07-25T04:11:38.897Z,99418.94
2022-07-25T04:12:10.227Z,99417.81
2022-07-25T04:12:41.519Z,99419.75
2022-07-25T04:13:12.822Z,99413.47
2022-07-25T04:13:44.092Z,99421.69
2022-07-25T04:14:15.430Z,99413.47
2022-07-25T04:14:46.791Z,99411.53
2022-07-25T04:15:18.089Z,99414.28
2022-07-25T04:15:49.470Z,99411.53
2022-07-25T04:16:22.528Z,99410.41
2022-07-25T04:16:54.292Z,99416.22
2022-07-25T04:17:25.844Z,99414.28
2022-07-25T04:17:57.302Z,99415.09
2022-07-25T04:18:28.999Z,99407.19
2022-07-25T04:19:01.596Z,99409.94
2022-07-25T04:19:33.084Z,99402.53
2022-07-25T04:20:04.479Z,99415.09
2022-07-25T04:20:38.040Z,99414.28
2022-07-25T04:21:09.399Z,99406.38
2022-07-25T04:21:40.815Z,99407.19
2022-07-25T04:22:12.180Z,99411.84
2022-07-25T04:22:46.762Z,99398.97
2022-07-25T04:23:18.680Z,99404.44
2022-07-25T04:23:50.141Z,99404.44
2022-07-25T04:24:21.648Z,99412.66
2022-07-25T04:24:52.976Z,99408.00
2022-07-25T04:25:24.349Z,99405.25
2022-07-25T04:25:55.723Z,99407.19
2022-07-25T04:26:27.134Z,99401.72
2022-07-25T04:26:58.639Z,99401.72
2022-07-25T04:27:29.989Z,99406.38
2022-07-25T04:28:01.350Z,99409.59
2022-07-25T04:28:32.868Z,99402.53
2022-07-25T04:29:04.268Z,99408.00
2022-07-25T04:29:35.625Z,99402.53
2022-07-25T04:30:06.966Z,99396.25
2022-07-25T04:30:38.380Z,99405.25
2022-07-25T04:31:09.710Z,99396.25
2022-07-25T04:31:41.124Z,99400.91
2022-07-25T04:32:12.578Z,99401.72
2022-07-25T04:32:43.970Z,99402.53
2022-07-25T04:33:15.322Z,99399.47
2022-07-25T04:33:46.699Z,99400.91
2022-07-25T04:34:18.025Z,99398.16
2022-07-25T04:34:49.381Z,99391.56
2022-07-25T04:35:20.746Z,99398.16
2022-07-25T04:35:52.327Z,99394.31
2022-07-25T04:36:23.715Z,99399.78
2022-07-25T04:36:55.077Z,99400.59
2022-07-25T04:37:26.462Z,99401.72
2022-07-25T04:37:57.819Z,99397.03
2022-07-25T04:38:29.191Z,99392.69
2022-07-25T04:39:00.548Z,99391.56
2022-07-25T04:39:31.862Z,99389.97
2022-07-25T04:40:03.273Z,99395.44
2022-07-25T04:40:34.628Z,99388.84
2022-07-25T04:41:05.974Z,99390.78
2022-07-25T04:41:37.294Z,99392.69
2022-07-25T04:42:08.602Z,99386.09
2022-07-25T04:42:40.035Z,99389.97
2022-07-25T04:43:11.324Z,99389.97
2022-07-25T04:43:48.268Z,99392.38
2022-07-25T04:44:20.151Z,99389.97
2022-07-25T04:44:51.524Z,99392.38
2022-07-25T04:45:22.982Z,99387.22
2022-07-25T04:45:54.368Z,99388.84
2022-07-25T04:46:25.899Z,99391.56
2022-07-25T04:46:57.265Z,99386.91
2022-07-25T04:47:28.574Z,99390.78
2022-07-25T04:47:59.985Z,99390.44
2022-07-25T04:48:31.374Z,99382.25
2022-07-25T04:49:02.845Z,99387.72
2022-07-25T04:49:34.222Z,99379.00
2022-07-25T04:50:05.634Z,99386.09
2022-07-25T04:50:37.027Z,99379.00
2022-07-25T04:51:08.376Z,99380.63
2022-07-25T04:51:39.692Z,99374.34
2022-07-25T04:52:11.097Z,99382.25
2022-07-25T04:52:42.484Z,99380.63
2022-07-25T04:53:13.881Z,99370.81
2022-07-25T04:53:45.239Z,99374.34
2022-07-25T04:54:16.569Z,99375.16
2022-07-25T04:54:47.926Z,99376.28
2022-07-25T04:55:19.228Z,99374.34
2022-07-25T04:55:50.694Z,99376.75
2022-07-25T04:56:22.072Z,99368.88
2022-07-25T04:56:53.472Z,99377.09
2022-07-25T04:57:24.814Z,99375.16
2022-07-25T04:57:56.113Z,99370.81
2022-07-25T04:58:27.461Z,99370.81
2022-07-25T04:59:04.687Z,99369.69
2022-07-25T04:59:37.960Z,99376.75
2022-07-25T05:00:09.392Z,99368.88
2022-07-25T05:00:40.828Z,99371.59
2022-07-25T05:01:12.376Z,99370.81
2022-07-25T05:01:43.951Z,99363.41
2022-07-25T05:02:15.380Z,99363.41
2022-07-25T05:02:46.799Z,99366.94
2022-07-25T05:03:18.136Z,99364.53
2022-07-25T05:03:50.132Z,99362.59
2022-07-25T05:04:22.132Z,99364.22
2022-07-25T05:04:53.538Z,99371.59
2022-07-25T05:05:24.877Z,99370.47
2022-07-25T05:05:56.250Z,99363.41
2022-07-25T05:06:27.588Z,99365.34
2022-07-25T05:06:58.973Z,99367.25
2022-07-25T05:07:30.311Z,99366.13
2022-07-25T05:08:01.623Z,99374.34
2022-07-25T05:08:33.015Z,99360.97
2022-07-25T05:09:04.384Z,99370.81
2022-07-25T05:09:35.753Z,99368.06
2022-07-25T05:10:07.110Z,99370.47
2022-07-25T05:10:38.473Z,99363.41
2022-07-25T05:11:09.783Z,99364.22
2022-07-25T05:11:46.787Z,99360.66
2022-07-25T05:12:19.290Z,99368.88
2022-07-25T05:12:50.613Z,99368.06
2022-07-25T05:13:21.941Z,99360.66
2022-07-25T05:13:53.356Z,99371.28
2022-07-25T05:14:24.718Z,99368.88
2022-07-25T05:14:56.095Z,99370.81
2022-07-25T05:15:27.466Z,99364.22
2022-07-25T05:15:58.848Z,99368.06
2022-07-25T05:16:30.246Z,99366.13
2022-07-25T05:17:01.623Z,99362.59
2022-07-25T05:17:33.005Z,99359.84
2022-07-25T05:18:04.298Z,99361.47
2022-07-25T05:18:35.660Z,99366.13
2022-07-25T05:19:06.954Z,99361.47
2022-07-25T05:19:38.322Z,99364.22
2022-07-25T05:20:09.750Z,99359.84
2022-07-25T05:20:41.109Z,99365.34
2022-07-25T05:21:12.405Z,99370.47
2022-07-25T05:21:43.765Z,99360.66
2022-07-25T05:22:15.106Z,99364.22
2022-07-25T05:22:46.610Z,99362.59
2022-07-25T05:23:18.027Z,99361.47
2022-07-25T05:23:49.390Z,99359.53
2022-07-25T05:24:20.833Z,99362.28
2022-07-25T05:24:52.187Z,99361.47
2022-07-25T05:25:23.585Z,99363.41
2022-07-25T05:25:54.963Z,99364.22
2022-07-25T05:26:26.277Z,99360.34
2022-07-25T05:26:57.787Z,99354.38
2022-07-25T05:27:29.144Z,99359.84
2022-07-25T05:28:00.443Z,99357.13
2022-07-25T05:28:31.744Z,99358.72
2022-07-25T05:29:03.104Z,99354.06
2022-07-25T05:29:34.438Z,99357.13
2022-07-25T05:30:05.800Z,99353.25
2022-07-25T05:30:39.987Z,99353.25
2022-07-25T05:31:11.577Z,99351.66
2022-07-25T05:31:43.157Z,99347.78
2022-07-25T05:32:14.542Z,99347.78
2022-07-25T05:32:45.911Z,99334.91
2022-07-25T05:33:17.260Z,99348.59
2022-07-25T05:33:48.650Z,99346.97
2022-07-25T05:34:20.069Z,99343.44
2022-07-25T05:34:51.479Z,99339.56
2022-07-25T05:35:22.829Z,99345.03
2022-07-25T05:35:54.315Z,99342.31
2022-07-25T05:36:25.740Z,99335.22
2022-07-25T05:36:57.117Z,99341.19
2022-07-25T05:37:28.426Z,99342.31
2022-07-25T05:37:59.748Z,99340.38
2022-07-25T05:38:31.114Z,99347.78
2022-07-25T05:39:02.522Z,99338.44
2022-07-25T05:39:33.886Z,99340.69
2022-07-25T05:40:05.206Z,99340.38
2022-07-25T05:40:36.507Z,99340.38
2022-07-25T05:41:07.888Z,99343.13
2022-07-25T05:41:39.203Z,99343.13
2022-07-25T05:42:10.538Z,99333.28
2022-07-25T05:42:41.856Z,99336.03
2022-07-25T05:43:13.229Z,99334.09
2022-07-25T05:43:44.554Z,99341.50
2022-07-25T05:44:15.951Z,99343.91
2022-07-25T05:44:47.283Z,99334.09
2022-07-25T05:45:18.723Z,99334.09
2022-07-25T05:45:50.129Z,99334.91
2022-07-25T05:46:21.544Z,99332.97
2022-07-25T05:46:53.120Z,99334.91
2022-07-25T05:47:24.551Z,99332.97
2022-07-25T05:47:55.997Z,99327.00
2022-07-25T05:48:27.485Z,99332.97
2022-07-25T05:48:58.931Z,99334.09
2022-07-25T05:49:30.338Z,99331.38
2022-07-25T05:50:01.690Z,99332.16
2022-07-25T05:50:33.093Z,99331.38
2022-07-25T05:51:04.467Z,99323.16
2022-07-25T05:51:35.862Z,99326.69
2022-07-25T05:52:12.532Z,99332.16
2022-07-25T05:52:44.683Z,99323.16
2022-07-25T05:53:16.066Z,99330.56
2022-07-25T05:53:47.533Z,99338.44
2022-07-25T05:54:18.978Z,99322.03
2022-07-25T05:54:50.349Z,99331.38
2022-07-25T05:55:21.713Z,99335.72
2022-07-25T05:55:53.335Z,99325.88
2022-07-25T05:56:24.777Z,99331.38
2022-07-25T05:56:56.136Z,99327.00
2022-07-25T05:57:27.585Z,99331.38
2022-07-25T05:57:58.931Z,99326.69
2022-07-25T05:58:30.363Z,99326.69
2022-07-25T05:59:01.775Z,99329.44
2022-07-25T05:59:33.165Z,99327.50
2022-07-25T06:00:04.486Z,99332.97
2022-07-25T06:00:35.866Z,99325.88
2022-07-25T06:01:07.242Z,99337.63
2022-07-25T06:01:38.628Z,99327.50
2022-07-25T06:02:10.158Z,99321.22
2022-07-25T06:02:41.747Z,99330.22
2022-07-25T06:03:13.260Z,99329.44
2022-07-25T06:03:44.766Z,99321.22
2022-07-25T06:04:16.151Z,99325.88
2022-07-25T06:04:47.571Z,99323.16
2022-07-25T06:05:19.054Z,99327.50
2022-07-25T06:05:50.482Z,99322.03
2022-07-25T06:06:21.845Z,99330.56
2022-07-25T06:06:53.211Z,99321.53
2022-07-25T06:07:24.653Z,99321.53
2022-07-25T06:07:56.019Z,99330.22
2022-07-25T06:08:27.395Z,99332.97
2022-07-25T06:08:59.129Z,99323.97
2022-07-25T06:09:31.317Z,99322.03
2022-07-25T06:10:02.736Z,99327.50
2022-07-25T06:10:34.227Z,99328.63
2022-07-25T06:11:07.079Z,99332.97
2022-07-25T06:11:50.979Z,99325.09
2022-07-25T06:12:27.559Z,99329.44